createdAt,value
2023-04-15T00:00:17.659Z,43.39
2023-04-15T00:01:17.837Z,42.96
2023-04-15T00:02:19.354Z,42.14
2023-04-15T00:03:18.780Z,42.34
2023-04-15T00:04:19.133Z,42.84
2023-04-15T00:05:19.457Z,42.73
2023-04-15T00:06:19.940Z,42.74
2023-04-15T00:07:20.002Z,43.22
2023-04-15T00:08:21.215Z,42.48
2023-04-15T00:09:21.654Z,42.38
2023-04-15T00:10:21.439Z,42.5
2023-04-15T00:11:21.650Z,42.87
2023-04-15T00:12:21.860Z,43.4
2023-04-15T00:13:22.230Z,42.95
2023-04-15T00:14:22.700Z,42.64
2023-04-15T00:15:23.002Z,42.93
2023-04-15T00:16:23.289Z,43.83
2023-04-15T00:17:23.812Z,43.51
2023-04-15T00:18:24.874Z,43.67
2023-04-15T00:19:24.687Z,43.26
2023-04-15T00:20:25.127Z,43.16
2023-04-15T00:21:25.256Z,42.96
2023-04-15T00:22:25.927Z,42.75
2023-04-15T00:23:26.642Z,42.84
2023-04-15T00:24:26.438Z,43.21
2023-04-15T00:25:26.871Z,42.99
2023-04-15T00:26:27.035Z,43.01
2023-04-15T00:27:27.391Z,43.04
2023-04-15T00:28:27.747Z,43.39
2023-04-15T00:29:28.184Z,43.51
2023-04-15T00:30:28.445Z,43.24
2023-04-15T00:31:28.807Z,43.45
2023-04-15T00:32:29.172Z,43.24
2023-04-15T00:33:29.575Z,43.31
2023-04-15T00:34:31.172Z,43.27
2023-04-15T00:35:30.384Z,42.9
2023-04-15T00:36:30.614Z,43.42
2023-04-15T00:37:31.257Z,43.47
2023-04-15T00:38:31.360Z,43.5
2023-04-15T00:39:31.968Z,43.7
2023-04-15T00:40:32.273Z,43.24
2023-04-15T00:41:32.624Z,42.96
2023-04-15T00:42:33.017Z,43.01
2023-04-15T00:43:33.329Z,42.85
2023-04-15T00:44:33.968Z,42.75
2023-04-15T00:45:33.993Z,43.2
2023-04-15T00:46:36.914Z,43.02
2023-04-15T00:47:36.448Z,43.04
2023-04-15T00:48:35.934Z,43.24
2023-04-15T00:49:35.519Z,43.58
2023-04-15T00:50:35.839Z,43.42
2023-04-15T00:51:36.254Z,44.07
2023-04-15T00:52:36.787Z,43.88
2023-04-15T00:53:36.890Z,43.74
2023-04-15T00:54:37.808Z,43.04
2023-04-15T00:55:38.045Z,42.95
2023-04-15T00:56:39.148Z,42.83
2023-04-15T00:57:39.778Z,43.07
2023-04-15T00:58:38.860Z,43.45
2023-04-15T00:59:39.168Z,43.33
2023-04-15T01:00:39.895Z,43.42
2023-04-15T01:01:40.558Z,44.29
2023-04-15T01:02:40.408Z,43.48
2023-04-15T01:03:40.781Z,43.34
2023-04-15T01:04:41.464Z,43.58
2023-04-15T01:05:41.467Z,43.35
2023-04-15T01:06:41.581Z,43.38
2023-04-15T01:07:42.089Z,43.68
2023-04-15T01:08:43.010Z,44.04
2023-04-15T01:09:43.341Z,44.32
2023-04-15T01:10:43.141Z,43.75
2023-04-15T01:11:43.969Z,43.96
2023-04-15T01:12:44.385Z,43.65
2023-04-15T01:13:44.595Z,43.48
2023-04-15T01:14:44.912Z,43.86
2023-04-15T01:15:45.319Z,43.96
2023-04-15T01:16:45.678Z,44.04
2023-04-15T01:17:46.146Z,43.83
2023-04-15T01:18:46.056Z,43.56
2023-04-15T01:19:46.777Z,44.36
2023-04-15T01:20:46.784Z,43.46
2023-04-15T01:21:47.104Z,43.24
2023-04-15T01:22:48.245Z,43.71
2023-04-15T01:23:49.091Z,43.69
2023-04-15T01:24:59.345Z,43.62
2023-04-15T01:25:53.063Z,43.68
2023-04-15T01:26:52.247Z,43.24
2023-04-15T01:27:52.496Z,43.37
2023-04-15T01:28:52.886Z,43.72
2023-04-15T01:29:53.295Z,43.48
2023-04-15T01:31:56.894Z,44.43
2023-04-15T01:32:56.887Z,45.2
2023-04-15T01:33:57.119Z,44.52
2023-04-15T01:34:57.750Z,44.39
2023-04-15T01:35:58.259Z,44.01
2023-04-15T01:36:58.589Z,43.8
2023-04-15T01:38:05.858Z,44.22
2023-04-15T01:39:03.547Z,44.25
2023-04-15T01:40:04.267Z,45.38
2023-04-15T01:41:04.120Z,44.92
2023-04-15T01:42:04.821Z,45.33
2023-04-15T01:43:04.852Z,45.16
2023-04-15T01:44:05.485Z,45.01
2023-04-15T01:45:06.713Z,44.45
2023-04-15T01:46:06.302Z,44.35
2023-04-15T01:47:06.427Z,44.16
2023-04-15T01:48:07.050Z,44.42
2023-04-15T01:49:06.943Z,44.64
2023-04-15T01:50:08.076Z,44.48
2023-04-15T01:51:07.651Z,44.62
2023-04-15T01:52:08.294Z,44.61
2023-04-15T01:53:08.450Z,45.03
2023-04-15T01:54:08.938Z,45.23
2023-04-15T01:55:09.895Z,45.29
2023-04-15T01:56:09.655Z,44.77
2023-04-15T01:57:10.323Z,45.24
2023-04-15T01:58:10.115Z,44.58
2023-04-15T01:59:10.698Z,44.1
2023-04-15T02:00:11.838Z,44.34
2023-04-15T02:01:11.529Z,44.6
2023-04-15T02:02:11.827Z,44.43
2023-04-15T02:03:12.198Z,44.68
2023-04-15T02:04:12.472Z,44.88
2023-04-15T02:05:12.899Z,45.72
2023-04-15T02:06:13.236Z,45.69
2023-04-15T02:07:13.627Z,44.62
2023-04-15T02:08:13.900Z,44.77
2023-04-15T02:09:14.570Z,44.79
2023-04-15T02:10:14.766Z,44.58
2023-04-15T02:11:15.081Z,45.17
2023-04-15T02:12:15.332Z,44.92
2023-04-15T02:13:15.603Z,45.09
2023-04-15T02:14:16.016Z,44.94
2023-04-15T02:15:16.954Z,44.89
2023-04-15T02:16:19.661Z,44.83
2023-04-15T02:17:17.385Z,45.62
2023-04-15T02:18:17.678Z,44.92
2023-04-15T02:19:17.828Z,45.43
2023-04-15T02:20:19.799Z,45.8
2023-04-15T02:21:18.737Z,45.13
2023-04-15T02:22:19.145Z,45.31
2023-04-15T02:23:19.666Z,45.27
2023-04-15T02:24:19.684Z,45.36
2023-04-15T02:25:20.032Z,44.89
2023-04-15T02:26:20.911Z,45.24
2023-04-15T02:27:20.922Z,44.92
2023-04-15T02:28:21.815Z,44.81
2023-04-15T02:29:21.717Z,44.86
2023-04-15T02:30:22.056Z,44.88
2023-04-15T02:31:22.363Z,45.45
2023-04-15T02:32:22.705Z,45.21
2023-04-15T02:33:23.108Z,45.14
2023-04-15T02:34:23.346Z,45.55
2023-04-15T02:35:23.850Z,45.32
2023-04-15T02:36:24.087Z,45.09
2023-04-15T02:37:24.516Z,45.47
2023-04-15T02:38:24.887Z,46.14
2023-04-15T02:39:25.310Z,46.01
2023-04-15T02:40:25.613Z,46.03
2023-04-15T02:41:26.034Z,44.91
2023-04-15T02:42:26.953Z,44.9
2023-04-15T02:43:26.652Z,45.34
2023-04-15T02:44:27.481Z,44.77
2023-04-15T02:45:27.494Z,44.73
2023-04-15T02:46:27.777Z,45.02
2023-04-15T02:47:28.410Z,44.82
2023-04-15T02:48:28.425Z,45.1
2023-04-15T02:49:28.917Z,44.81
2023-04-15T02:50:29.170Z,44.42
2023-04-15T02:51:31.115Z,45.59
2023-04-15T02:52:30.242Z,44.91
2023-04-15T02:53:30.316Z,45.14
2023-04-15T02:54:30.623Z,45.39
2023-04-15T02:55:31.562Z,45.61
2023-04-15T02:56:31.464Z,45.67
2023-04-15T02:57:31.965Z,45.72
2023-04-15T02:58:32.122Z,45.57
2023-04-15T02:59:32.594Z,45.71
2023-04-15T03:00:32.916Z,46.42
2023-04-15T03:01:33.204Z,46.54
2023-04-15T03:02:37.344Z,46.63
2023-04-15T03:03:35.427Z,46.97
2023-04-15T03:04:35.298Z,46.87
2023-04-15T03:05:35.497Z,46.57
2023-04-15T03:06:36.272Z,46.74
2023-04-15T03:07:36.343Z,46.66
2023-04-15T03:08:36.701Z,47.01
2023-04-15T03:09:37.277Z,46.04
2023-04-15T03:10:37.289Z,46.21
2023-04-15T03:11:37.704Z,46.06
2023-04-15T03:12:38.052Z,47.15
2023-04-15T03:13:38.563Z,47.3
2023-04-15T03:14:38.737Z,46.55
2023-04-15T03:15:39.223Z,46.67
2023-04-15T03:16:39.388Z,46.9
2023-04-15T03:17:40.093Z,46.5
2023-04-15T03:18:40.286Z,46.34
2023-04-15T03:19:40.726Z,47.28
2023-04-15T03:20:41.066Z,46.91
2023-04-15T03:21:41.278Z,47.13
2023-04-15T03:22:41.645Z,46.95
2023-04-15T03:23:42.384Z,46.78
2023-04-15T03:24:42.599Z,47
2023-04-15T03:25:42.698Z,46.69
2023-04-15T03:26:43.218Z,46.46
2023-04-15T03:27:43.425Z,46.21
2023-04-15T03:28:43.845Z,46.62
2023-04-15T03:29:44.221Z,46.55
2023-04-15T03:30:44.571Z,46.78
2023-04-15T03:31:44.881Z,46.75
2023-04-15T03:32:45.301Z,46.85
2023-04-15T03:33:45.721Z,47.25
2023-04-15T03:34:45.884Z,47.2
2023-04-15T03:35:46.557Z,48.17
2023-04-15T03:36:47.013Z,47.26
2023-04-15T03:37:47.076Z,46.7
2023-04-15T03:38:47.484Z,48.16
2023-04-15T03:39:47.908Z,48.08
2023-04-15T03:40:48.237Z,47.56
2023-04-15T03:41:48.541Z,47.19
2023-04-15T03:42:48.845Z,46.69
2023-04-15T03:43:50.005Z,46.88
2023-04-15T03:44:49.576Z,46.93
2023-04-15T03:45:50.006Z,47.52
2023-04-15T03:46:50.400Z,48.04
2023-04-15T03:47:50.650Z,46.67
2023-04-15T03:48:51.158Z,47.13
2023-04-15T03:49:51.353Z,47.58
2023-04-15T03:50:51.765Z,47.34
2023-04-15T03:51:52.111Z,47.65
2023-04-15T03:52:52.421Z,47.56
2023-04-15T03:53:52.818Z,47.34
2023-04-15T03:54:53.230Z,47.84
2023-04-15T03:55:53.666Z,46.91
2023-04-15T03:56:53.863Z,46.77
2023-04-15T03:57:54.282Z,46.92
2023-04-15T03:58:54.694Z,46.79
2023-04-15T03:59:55.011Z,47.21
2023-04-15T04:00:55.313Z,47.06
2023-04-15T04:01:55.720Z,46.93
2023-04-15T04:02:56.290Z,47.41
2023-04-15T04:03:56.630Z,46.71
2023-04-15T04:04:56.794Z,46.93
2023-04-15T04:05:57.107Z,46.41
2023-04-15T04:06:57.472Z,46.82
2023-04-15T04:07:57.921Z,46.57
2023-04-15T04:08:58.232Z,47.09
2023-04-15T04:09:58.970Z,47.03
2023-04-15T04:10:58.918Z,47.02
2023-04-15T04:11:59.174Z,47.06
2023-04-15T04:12:59.710Z,47.35
2023-04-15T04:13:59.965Z,47.16
2023-04-15T04:15:00.365Z,47.44
2023-04-15T04:16:00.774Z,46.86
2023-04-15T04:17:01.243Z,46.91
2023-04-15T04:18:01.478Z,47.98
2023-04-15T04:19:02.416Z,46.98
2023-04-15T04:20:02.202Z,47.02
2023-04-15T04:21:02.518Z,46.74
2023-04-15T04:22:02.929Z,46.98
2023-04-15T04:23:03.241Z,46.89
2023-04-15T04:24:03.799Z,46.82
2023-04-15T04:25:04.447Z,46.59
2023-04-15T04:26:04.499Z,46.77
2023-04-15T04:27:04.658Z,46.29
2023-04-15T04:28:05.035Z,46.93
2023-04-15T04:29:05.379Z,46.83
2023-04-15T04:30:07.182Z,46.11
2023-04-15T04:31:07.089Z,46.67
2023-04-15T04:32:07.241Z,46.71
2023-04-15T04:33:07.346Z,47.38
2023-04-15T04:34:07.304Z,46.88
2023-04-15T04:35:08.134Z,45.98
2023-04-15T04:36:08.248Z,46.02
2023-04-15T04:37:08.351Z,45.77
2023-04-15T04:38:08.695Z,45.83
2023-04-15T04:39:09.002Z,45.56
2023-04-15T04:40:10.067Z,46.02
2023-04-15T04:41:09.713Z,46.22
2023-04-15T04:42:10.104Z,45.85
2023-04-15T04:43:10.466Z,46.82
2023-04-15T04:44:11.064Z,46.25
2023-04-15T04:45:11.692Z,45.79
2023-04-15T04:46:11.538Z,45.51
2023-04-15T04:47:11.808Z,45.02
2023-04-15T04:48:12.381Z,45.51
2023-04-15T04:49:12.633Z,46.12
2023-04-15T04:50:12.960Z,45.45
2023-04-15T04:51:13.627Z,45.87
2023-04-15T04:52:13.691Z,45.61
2023-04-15T04:53:14.906Z,45.84
2023-04-15T04:54:14.350Z,45.7
2023-04-15T04:55:14.723Z,44.98
2023-04-15T04:56:15.136Z,44.93
2023-04-15T04:57:15.445Z,44.97
2023-04-15T04:58:15.655Z,44.76
2023-04-15T04:59:16.998Z,45.26
2023-04-15T05:00:17.010Z,45
2023-04-15T05:01:17.587Z,44.67
2023-04-15T05:02:17.337Z,44.51
2023-04-15T05:03:18.043Z,44.08
2023-04-15T05:04:18.091Z,44.49
2023-04-15T05:05:18.683Z,44.17
2023-04-15T05:06:18.632Z,44.71
2023-04-15T05:07:19.296Z,44.2
2023-04-15T05:08:19.518Z,44.23
2023-04-15T05:09:20.041Z,43.8
2023-04-15T05:10:20.303Z,43.96
2023-04-15T05:11:20.787Z,43.96
2023-04-15T05:12:20.917Z,44.16
2023-04-15T05:13:21.334Z,44.01
2023-04-15T05:14:23.320Z,43.87
2023-04-15T05:15:22.227Z,43.5
2023-04-15T05:16:23.142Z,44.17
2023-04-15T05:17:22.927Z,43.8
2023-04-15T05:18:23.380Z,44.14
2023-04-15T05:19:23.682Z,44.01
2023-04-15T05:20:24.016Z,44.06
2023-04-15T05:21:24.264Z,44.25
2023-04-15T05:22:24.852Z,43.48
2023-04-15T05:23:25.251Z,43.6
2023-04-15T05:24:25.563Z,43.74
2023-04-15T05:25:25.975Z,44.09
2023-04-15T05:26:26.246Z,43.27
2023-04-15T05:27:26.786Z,43.16
2023-04-15T05:28:27.222Z,43.74
2023-04-15T05:29:27.441Z,43.98
2023-04-15T05:30:27.553Z,43.91
2023-04-15T05:31:27.946Z,43.24
2023-04-15T05:32:28.397Z,42.98
2023-04-15T05:33:28.801Z,42.41
2023-04-15T05:34:29.225Z,42.62
2023-04-15T05:35:29.488Z,43.07
2023-04-15T05:36:29.737Z,43.26
2023-04-15T05:37:30.246Z,43.02
2023-04-15T05:38:30.570Z,42.19
2023-04-15T05:39:31.090Z,42.69
2023-04-15T05:40:31.619Z,42.87
2023-04-15T05:41:31.620Z,43.09
2023-04-15T05:42:32.025Z,42.84
2023-04-15T05:43:32.549Z,42.59
2023-04-15T05:44:33.122Z,42.5
2023-04-15T05:45:33.122Z,43.29
2023-04-15T05:46:33.662Z,42.39
2023-04-15T05:47:34.340Z,42.38
2023-04-15T05:48:34.423Z,42.54
2023-04-15T05:49:34.738Z,42.38
2023-04-15T05:50:35.024Z,42.32
2023-04-15T05:51:35.468Z,42.06
2023-04-15T05:52:35.986Z,42.3
2023-04-15T05:53:36.300Z,42.53
2023-04-15T05:54:36.621Z,41.99
2023-04-15T05:55:37.026Z,41.65
2023-04-15T05:56:37.276Z,41.26
2023-04-15T05:57:37.800Z,42.06
2023-04-15T05:58:38.844Z,41.89
2023-04-15T05:59:38.504Z,41.87
2023-04-15T06:00:38.842Z,41.73
2023-04-15T06:01:39.115Z,41.81
2023-04-15T06:02:39.810Z,41.54
2023-04-15T06:03:40.222Z,41.54
2023-04-15T06:04:40.527Z,41.18
2023-04-15T06:05:40.801Z,40.91
2023-04-15T06:06:41.103Z,40.98
2023-04-15T06:07:41.443Z,41
2023-04-15T06:08:41.926Z,41.28
2023-04-15T06:09:42.242Z,40.88
2023-04-15T06:10:43.069Z,41.31
2023-04-15T06:11:42.835Z,41.88
2023-04-15T06:12:43.492Z,40.7
2023-04-15T06:13:43.813Z,41.05
2023-04-15T06:14:44.073Z,41.09
2023-04-15T06:15:44.438Z,40.5
2023-04-15T06:16:44.835Z,40.76
2023-04-15T06:17:45.516Z,40.44
2023-04-15T06:18:45.507Z,40.62
2023-04-15T06:19:45.954Z,40.61
2023-04-15T06:20:46.723Z,40.85
2023-04-15T06:21:46.623Z,41.31
2023-04-15T06:22:47.255Z,40.35
2023-04-15T06:23:47.671Z,40.28
2023-04-15T06:24:48.288Z,40.62
2023-04-15T06:25:48.187Z,40.38
2023-04-15T06:26:48.715Z,39.94
2023-04-15T06:27:49.023Z,39.67
2023-04-15T06:28:49.434Z,40.03
2023-04-15T06:29:49.747Z,39.86
2023-04-15T06:30:50.099Z,39.73
2023-04-15T06:31:51.131Z,39.18
2023-04-15T06:32:50.958Z,38.71
2023-04-15T06:33:51.307Z,38.92
2023-04-15T06:34:51.728Z,38.92
2023-04-15T06:35:52.051Z,39
2023-04-15T06:36:52.386Z,39.24
2023-04-15T06:37:52.886Z,39.07
2023-04-15T06:38:53.142Z,38.46
2023-04-15T06:39:53.611Z,39.22
2023-04-15T06:40:54.124Z,38.58
2023-04-15T06:41:54.450Z,38.91
2023-04-15T06:42:55.407Z,39.21
2023-04-15T06:43:55.166Z,38.78
2023-04-15T06:44:55.685Z,38.78
2023-04-15T06:45:55.830Z,38.46
2023-04-15T06:46:56.316Z,38.28
2023-04-15T06:47:56.860Z,38.75
2023-04-15T06:48:57.757Z,38.1
2023-04-15T06:49:58.037Z,38.23
2023-04-15T06:50:58.592Z,38.39
2023-04-15T06:51:58.809Z,38.22
2023-04-15T06:52:59.417Z,38.03
2023-04-15T06:53:59.631Z,38.38
2023-04-15T06:55:00.054Z,37.44
2023-04-15T06:56:00.360Z,37.71
2023-04-15T06:57:00.776Z,37.93
2023-04-15T06:58:01.118Z,38.28
2023-04-15T06:59:02.013Z,38.2
2023-04-15T07:00:02.474Z,37.34
2023-04-15T07:01:02.671Z,38.16
2023-04-15T07:02:03.107Z,38.67
2023-04-15T07:03:03.185Z,38.68
2023-04-15T07:04:03.621Z,37.28
2023-04-15T07:05:04.731Z,37.82
2023-04-15T07:06:04.365Z,37.27
2023-04-15T07:07:04.600Z,37.44
2023-04-15T07:08:05.592Z,37.4
2023-04-15T07:09:05.818Z,36.95
2023-04-15T07:10:07.023Z,36.93
2023-04-15T07:11:07.334Z,37.26
2023-04-15T07:12:06.621Z,37
2023-04-15T07:13:06.978Z,37.24
2023-04-15T07:14:07.453Z,37.34
2023-04-15T07:15:08.474Z,37.64
2023-04-15T07:16:08.073Z,37.21
2023-04-15T07:17:09.618Z,37.41
2023-04-15T07:18:08.964Z,37.81
2023-04-15T07:19:09.335Z,37.66
2023-04-15T07:20:10.458Z,37.11
2023-04-15T07:21:10.368Z,37.69
2023-04-15T07:22:10.564Z,36.93
2023-04-15T07:23:10.893Z,37.11
2023-04-15T07:24:11.203Z,37.49
2023-04-15T07:25:11.917Z,37.31
2023-04-15T07:26:12.206Z,37.19
2023-04-15T07:27:12.646Z,37
2023-04-15T07:28:12.861Z,37.19
2023-04-15T07:29:13.187Z,37.23
2023-04-15T07:30:14.162Z,37.45
2023-04-15T07:31:14.141Z,38.13
2023-04-15T07:32:14.371Z,37.28
2023-04-15T07:33:14.844Z,37.29
2023-04-15T07:34:15.272Z,36.91
2023-04-15T07:35:15.678Z,36.97
2023-04-15T07:36:15.786Z,37.13
2023-04-15T07:37:16.399Z,36.77
2023-04-15T07:38:16.722Z,37.06
2023-04-15T07:39:17.089Z,37.13
2023-04-15T07:40:17.806Z,36.86
2023-04-15T07:41:17.971Z,37.35
2023-04-15T07:42:18.429Z,37.04
2023-04-15T07:43:18.735Z,36.59
2023-04-15T07:44:19.228Z,36.59
2023-04-15T07:45:20.243Z,36.73
2023-04-15T07:46:20.022Z,36.2
2023-04-15T07:47:20.408Z,36.68
2023-04-15T07:48:20.694Z,36.18
2023-04-15T07:49:21.091Z,35.78
2023-04-15T07:50:21.539Z,35.55
2023-04-15T07:51:21.978Z,36.4
2023-04-15T07:52:22.262Z,35.77
2023-04-15T07:53:22.667Z,36.38
2023-04-15T07:54:23.135Z,36.57
2023-04-15T07:55:23.694Z,36.3
2023-04-15T07:56:24.015Z,36.25
2023-04-15T07:57:24.426Z,36.18
2023-04-15T07:58:24.941Z,36.38
2023-04-15T07:59:25.157Z,36.69
2023-04-15T08:00:25.568Z,36.03
2023-04-15T08:01:25.989Z,36.03
2023-04-15T08:02:26.394Z,35.87
2023-04-15T08:03:26.949Z,36.35
2023-04-15T08:04:27.234Z,35.64
2023-04-15T08:05:27.622Z,35.3
2023-04-15T08:06:28.006Z,35.82
2023-04-15T08:07:28.280Z,36
2023-04-15T08:08:28.918Z,35.66
2023-04-15T08:09:29.012Z,35.67
2023-04-15T08:10:30.353Z,35.28
2023-04-15T08:11:30.666Z,35.99
2023-04-15T08:12:30.573Z,35.71
2023-04-15T08:13:30.694Z,35.66
2023-04-15T08:14:31.191Z,35.65
2023-04-15T08:15:31.612Z,35.78
2023-04-15T08:16:31.950Z,35.82
2023-04-15T08:17:32.271Z,35.87
2023-04-15T08:18:32.754Z,35.98
2023-04-15T08:19:33.172Z,35.24
2023-04-15T08:20:33.644Z,35.52
2023-04-15T08:21:34.007Z,35.54
2023-04-15T08:22:34.671Z,35.92
2023-04-15T08:23:34.845Z,36.12
2023-04-15T08:24:35.149Z,35.45
2023-04-15T08:25:35.660Z,35.3
2023-04-15T08:26:35.978Z,35.53
2023-04-15T08:27:36.318Z,34.98
2023-04-15T08:28:39.111Z,35.45
2023-04-15T08:29:37.122Z,35.25
2023-04-15T08:30:37.649Z,36.27
2023-04-15T08:31:37.993Z,35.7
2023-04-15T08:32:38.632Z,35.45
2023-04-15T08:33:38.687Z,35.46
2023-04-15T08:34:39.161Z,35.87
2023-04-15T08:35:39.631Z,35.67
2023-04-15T08:36:40.042Z,35.32
2023-04-15T08:37:40.421Z,35.21
2023-04-15T08:38:40.600Z,35.05
2023-04-15T08:39:41.184Z,34.9
2023-04-15T08:40:43.761Z,35.7
2023-04-15T08:41:47.757Z,35.49
2023-04-15T08:42:49.263Z,34.71
2023-04-15T08:43:54.729Z,35.25
2023-04-15T08:44:48.439Z,35.67
2023-04-15T08:45:50.740Z,35.73
2023-04-15T08:46:48.554Z,35.37
2023-04-15T08:47:55.340Z,35.1
2023-04-15T08:48:56.807Z,35.02
2023-04-15T08:49:57.854Z,35.76
2023-04-15T08:50:55.731Z,35.87
2023-04-15T08:51:58.380Z,34.87
2023-04-15T08:52:58.898Z,35.3
2023-04-15T08:53:57.067Z,35.82
2023-04-15T08:54:58.505Z,35.36
2023-04-15T08:56:00.236Z,34.35
2023-04-15T08:56:58.806Z,34.78
2023-04-15T08:57:58.308Z,35.21
2023-04-15T08:59:00.071Z,34.84
2023-04-15T08:59:59.242Z,34.98
2023-04-15T09:00:59.911Z,34.82
2023-04-15T09:01:59.913Z,34.81
2023-04-15T09:03:00.555Z,35
2023-04-15T09:04:03.826Z,34.92
2023-04-15T09:05:01.527Z,35.52
2023-04-15T09:06:04.198Z,34.86
2023-04-15T09:07:02.261Z,35.08
2023-04-15T09:08:03.137Z,35.51
2023-04-15T09:09:03.458Z,34.69
2023-04-15T09:10:04.530Z,34.91
2023-04-15T09:11:04.240Z,35.44
2023-04-15T09:12:05.061Z,34.3
2023-04-15T09:13:05.174Z,34.16
2023-04-15T09:14:05.021Z,34.86
2023-04-15T09:15:06.668Z,34.29
2023-04-15T09:16:06.982Z,35.19
2023-04-15T09:17:10.207Z,35.34
2023-04-15T09:18:07.853Z,34.6
2023-04-15T09:19:21.497Z,34.11
2023-04-15T09:20:13.649Z,35.53
2023-04-15T09:21:13.257Z,34.65
2023-04-15T09:22:11.878Z,34.17
2023-04-15T09:23:13.217Z,34.44
2023-04-15T09:24:12.398Z,35.24
2023-04-15T09:26:17.741Z,34.7
2023-04-15T09:27:17.912Z,34.72
2023-04-15T09:28:24.923Z,34.34
2023-04-15T09:29:25.395Z,34.47
2023-04-15T09:30:23.345Z,34.33
2023-04-15T09:31:30.581Z,34.47
2023-04-15T09:32:28.191Z,34.31
2023-04-15T09:33:30.376Z,34.1
2023-04-15T09:34:37.720Z,34.5
2023-04-15T09:35:30.208Z,34.83
2023-04-15T09:36:36.952Z,34.2
2023-04-15T09:37:36.959Z,34.04
2023-04-15T09:38:34.916Z,34.46
2023-04-15T09:39:48.850Z,34.21
2023-04-15T09:40:38.053Z,33.69
2023-04-15T09:41:36.895Z,34.04
2023-04-15T09:42:37.294Z,33.84
2023-04-15T09:43:39.012Z,34.06
2023-04-15T09:44:37.989Z,33.48
2023-04-15T09:45:38.460Z,35.01
2023-04-15T09:46:45.820Z,33.2
2023-04-15T09:47:43.418Z,34.16
2023-04-15T09:48:43.787Z,33.45
2023-04-15T09:49:56.397Z,33.6
2023-04-15T09:50:50.056Z,33.4
2023-04-15T09:52:04.120Z,33.87
2023-04-15T09:52:52.929Z,32.55
2023-04-15T09:53:55.806Z,32.83
2023-04-15T09:54:54.908Z,33.45
2023-04-15T09:55:56.333Z,32.91
2023-04-15T09:56:54.731Z,32.94
2023-04-15T09:57:55.005Z,32.76
2023-04-15T09:58:57.068Z,32.77
2023-04-15T09:59:56.572Z,32.72
2023-04-15T10:00:59.462Z,32.75
2023-04-15T10:01:58.283Z,32.34
2023-04-15T10:02:58.065Z,32.87
2023-04-15T10:03:58.476Z,33.52
2023-04-15T10:04:59.502Z,32.82
2023-04-15T10:06:00.980Z,32.44
2023-04-15T10:07:00.908Z,33.14
2023-04-15T10:08:00.618Z,33.2
2023-04-15T10:09:01.709Z,32.68
2023-04-15T10:10:00.673Z,32.89
2023-04-15T10:11:03.233Z,32.79
2023-04-15T10:12:02.240Z,33.11
2023-04-15T10:13:03.201Z,32.62
2023-04-15T10:14:03.099Z,32.07
2023-04-15T10:15:05.574Z,32.08
2023-04-15T10:16:10.722Z,32.22
2023-04-15T10:17:11.120Z,31.79
2023-04-15T10:18:10.295Z,32.49
2023-04-15T10:19:09.529Z,33.03
2023-04-15T10:20:11.257Z,32.49
2023-04-15T10:21:10.207Z,33.21
2023-04-15T10:22:10.857Z,32.64
2023-04-15T10:23:13.369Z,32.59
2023-04-15T10:24:11.601Z,32.19
2023-04-15T10:25:12.770Z,32.35
2023-04-15T10:26:13.223Z,32.87
2023-04-15T10:27:12.721Z,32.6
2023-04-15T10:28:14.566Z,32.06
2023-04-15T10:29:14.076Z,32.81
2023-04-15T10:30:14.199Z,32.83
2023-04-15T10:31:15.510Z,31.77
2023-04-15T10:32:16.173Z,32.65
2023-04-15T10:33:16.853Z,32.43
2023-04-15T10:34:16.304Z,31.4
2023-04-15T10:35:17.598Z,31.15
2023-04-15T10:36:16.673Z,32.94
2023-04-15T10:37:22.203Z,32.18
2023-04-15T10:41:29.300Z,31.74
2023-04-15T10:43:31.765Z,31.45
2023-04-15T10:44:32.178Z,32.06
2023-04-15T10:45:34.541Z,31.41
2023-04-15T10:47:39.006Z,31.95
2023-04-15T10:48:38.366Z,31.62
2023-04-15T10:51:53.891Z,31.43
2023-04-15T10:52:46.265Z,31.65
2023-04-15T10:53:46.886Z,31.32
2023-04-15T10:54:47.107Z,31.74
2023-04-15T10:55:47.518Z,32.16
2023-04-15T10:56:52.185Z,31.42
2023-04-15T10:57:59.722Z,31.58
2023-04-15T10:58:52.184Z,32.3
2023-04-15T11:00:55.380Z,31.49
2023-04-15T11:04:03.201Z,31.29
2023-04-15T11:05:03.037Z,31.04
2023-04-15T11:06:04.065Z,31.38
2023-04-15T11:07:07.049Z,30.42
2023-04-15T11:08:04.903Z,30.61
2023-04-15T11:09:05.099Z,30.86
2023-04-15T11:11:07.167Z,30.56
2023-04-15T11:12:11.070Z,31.33
2023-04-15T11:14:16.516Z,30.57
2023-04-15T11:16:18.168Z,30.42
2023-04-15T11:17:28.161Z,30.61
2023-04-15T11:18:28.139Z,30.86
2023-04-15T11:19:25.855Z,30.59
2023-04-15T11:20:26.180Z,30.18
2023-04-15T11:21:26.487Z,30.05
2023-04-15T11:22:26.800Z,30.29
2023-04-15T11:23:35.309Z,31.41
2023-04-15T11:24:27.859Z,30.86
2023-04-15T11:25:30.603Z,30.94
2023-04-15T11:26:28.662Z,31.05
2023-04-15T11:27:31.042Z,30.57
2023-04-15T11:28:31.507Z,30.75
2023-04-15T11:29:31.664Z,30.04
2023-04-15T11:30:32.376Z,30.8
2023-04-15T11:31:31.079Z,30.83
2023-04-15T11:32:31.181Z,30.15
2023-04-15T11:33:31.540Z,30.72
2023-04-15T11:34:33.700Z,30.29
2023-04-15T11:35:34.261Z,30.31
2023-04-15T11:36:32.940Z,30.2
2023-04-15T11:37:33.350Z,30.12
2023-04-15T11:38:34.898Z,30.85
2023-04-15T11:39:34.185Z,30.54
2023-04-15T11:40:35.764Z,31.05
2023-04-15T11:41:36.147Z,30.2
2023-04-15T11:42:48.644Z,30.28
2023-04-15T11:43:36.975Z,31.19
2023-04-15T11:44:37.496Z,30.61
2023-04-15T11:45:47.762Z,30.32
2023-04-15T11:46:40.269Z,30.17
2023-04-15T11:47:42.134Z,30.71
2023-04-15T11:48:44.388Z,30.52
2023-04-15T11:49:42.539Z,30.43
2023-04-15T11:50:42.359Z,30.92
2023-04-15T11:51:42.877Z,29.93
2023-04-15T11:53:46.467Z,30.2
2023-04-15T11:54:44.841Z,30.18
2023-04-15T11:55:54.196Z,30.38
2023-04-15T11:56:51.502Z,30.24
2023-04-15T11:57:48.953Z,30.22
2023-04-15T11:58:53.008Z,29.8
2023-04-15T11:59:50.409Z,30.1
2023-04-15T12:00:55.838Z,30.27
2023-04-15T12:01:53.154Z,30.24
2023-04-15T12:03:54.158Z,30.14
2023-04-15T12:08:00.620Z,30.41
2023-04-15T12:10:00.091Z,29.85
2023-04-15T12:11:00.258Z,29.83
2023-04-15T12:12:00.706Z,30.25
2023-04-15T12:13:01.227Z,30.12
2023-04-15T12:15:05.491Z,29.77
2023-04-15T12:16:05.987Z,29.27
2023-04-15T12:17:06.815Z,29.32
2023-04-15T12:18:06.193Z,29.36
2023-04-15T12:19:09.772Z,29.65
2023-04-15T12:20:07.942Z,29.29
2023-04-15T12:21:11.113Z,29.59
2023-04-15T12:22:13.575Z,29.02
2023-04-15T12:23:10.938Z,28.88
2023-04-15T12:24:12.461Z,28.62
2023-04-15T12:25:12.370Z,28.78
2023-04-15T12:26:13.004Z,29.56
2023-04-15T12:27:14.841Z,29.75
2023-04-15T12:28:13.809Z,29.79
2023-04-15T12:29:15.782Z,29.7
2023-04-15T12:30:14.656Z,29.66
2023-04-15T12:31:15.149Z,29.87
2023-04-15T12:32:16.986Z,29.68
2023-04-15T12:33:15.902Z,29.37
2023-04-15T12:34:16.224Z,28.92
2023-04-15T12:35:16.742Z,29.69
2023-04-15T12:36:17.402Z,29.4
2023-04-15T12:37:17.801Z,29.18
2023-04-15T12:38:18.092Z,29.73
2023-04-15T12:39:18.360Z,29.15
2023-04-15T12:40:20.211Z,29.16
2023-04-15T12:41:21.286Z,29.19
2023-04-15T12:42:20.236Z,29.65
2023-04-15T12:43:20.118Z,29.19
2023-04-15T12:44:22.424Z,29.32
2023-04-15T12:45:21.070Z,30.04
2023-04-15T12:46:21.649Z,30.12
2023-04-15T12:47:21.860Z,29.83
2023-04-15T12:48:22.364Z,28.8
2023-04-15T12:49:24.209Z,28.58
2023-04-15T12:50:23.096Z,28.9
2023-04-15T12:51:23.704Z,29.18
2023-04-15T12:52:24.027Z,29.15
2023-04-15T12:53:24.446Z,29.1
2023-04-15T12:54:24.960Z,29.06
2023-04-15T12:55:25.275Z,29.34
2023-04-15T12:56:25.994Z,29.12
2023-04-15T12:57:26.307Z,28.57
2023-04-15T12:58:26.625Z,28.81
2023-04-15T12:59:26.942Z,28.99
2023-04-15T13:00:27.905Z,29.33
2023-04-15T13:01:28.622Z,29.14
2023-04-15T13:02:29.099Z,28.99
2023-04-15T13:03:29.480Z,28.44
2023-04-15T13:04:30.086Z,28.92
2023-04-15T13:05:30.660Z,28.52
2023-04-15T13:06:31.283Z,28.42
2023-04-15T13:07:31.603Z,28.41
2023-04-15T13:08:32.466Z,29.22
2023-04-15T13:09:33.044Z,29.26
2023-04-15T13:10:33.149Z,28.41
2023-04-15T13:11:33.852Z,28.61
2023-04-15T13:12:33.730Z,28.67
2023-04-15T13:13:34.600Z,28.48
2023-04-15T13:14:35.067Z,29.06
2023-04-15T13:15:35.156Z,28.27
2023-04-15T13:16:36.059Z,27.98
2023-04-15T13:17:36.054Z,28.09
2023-04-15T13:18:36.469Z,27.89
2023-04-15T13:19:36.899Z,27.98
2023-04-15T13:20:37.268Z,28.67
2023-04-15T13:21:37.829Z,28.42
2023-04-15T13:22:38.146Z,28.48
2023-04-15T13:23:38.572Z,28.47
2023-04-15T13:24:39.171Z,28.24